Time;durP1;ratioP1;P1;durP2;ratioP2;P2;SDS_P1;SDS_P2;PMS_P1;PMS_P2;Temp;Humidity;BMP_temperature;BMP_pressure;BME280_temperature;BME280_humidity;BME280_pressure;Samples;Min_cycle;Max_cycle;Signal;HPM_P1;HPM_P2
2023/05/09 00:00:30;;;;;;;28.20;25.80;;;;;;;21.72;46.23;95345.06;6029016;28;109633;-66
2023/05/09 00:03:34;;;;;;;29.23;26.53;;;;;;;21.70;46.54;95336.56;6038138;28;113562;-66
2023/05/09 00:06:37;;;;;;;29.30;26.70;;;;;;;21.71;46.68;95337.34;6035259;28;110010;-67
2023/05/09 00:09:42;;;;;;;28.97;26.40;;;;;;;21.70;46.08;95330.47;6031881;28;109425;-66
2023/05/09 00:12:46;;;;;;;30.13;27.40;;;;;;;21.71;46.26;95332.03;6032168;28;110316;-67
2023/05/09 00:15:49;;;;;;;27.73;25.33;;;;;;;21.69;46.02;95329.66;6038030;28;109045;-66
2023/05/09 00:18:52;;;;;;;28.40;25.93;;;;;;;21.69;46.62;95334.19;6036528;28;110150;-66
2023/05/09 00:21:55;;;;;;;29.20;26.70;;;;;;;21.70;46.70;95330.47;6031228;28;111213;-66
2023/05/09 00:25:00;;;;;;;28.63;26.23;;;;;;;21.70;46.16;95331.25;6041715;28;110150;-66
2023/05/09 00:28:03;;;;;;;29.77;27.23;;;;;;;21.70;46.36;95322.47;6037008;28;109787;-65
2023/05/09 00:31:06;;;;;;;28.90;26.40;;;;;;;21.68;46.20;95314.78;6037005;28;110326;-66
2023/05/09 00:34:09;;;;;;;27.13;24.80;;;;;;;21.70;45.97;95322.47;6026112;28;108840;-65
2023/05/09 00:37:13;;;;;;;28.23;25.73;;;;;;;21.69;45.86;95327.00;6037701;28;109266;-66
2023/05/09 00:40:17;;;;;;;28.27;25.83;;;;;;;21.68;46.54;95319.31;6051233;28;109070;-67
2023/05/09 00:43:21;;;;;;;28.57;26.10;;;;;;;21.67;46.20;95326.47;6032557;28;108832;-66
2023/05/09 00:46:24;;;;;;;28.00;25.60;;;;;;;21.65;46.10;95318.00;6030072;28;109508;-67
2023/05/09 00:49:27;;;;;;;27.23;25.03;;;;;;;21.65;46.14;95319.88;6046375;28;110558;-66
2023/05/09 00:52:33;;;;;;;28.37;25.90;;;;;;;21.62;46.12;95317.81;6038664;28;110335;-67
2023/05/09 00:55:37;;;;;;;26.90;24.70;;;;;;;21.59;46.15;95323.72;6028398;28;109111;-68
2023/05/09 00:58:41;;;;;;;27.40;25.00;;;;;;;21.66;46.60;95326.78;6041045;28;110617;-66
2023/05/09 01:01:44;;;;;;;26.30;24.00;;;;;;;21.65;45.69;95328.66;6035825;28;109319;-66
2023/05/09 01:04:48;;;;;;;27.27;25.00;;;;;;;21.65;46.17;95327.88;6071617;28;109371;-67
2023/05/09 01:08:00;;;;;;;26.53;24.17;;;;;;;21.66;46.22;95330.22;6029425;28;109113;-66
2023/05/09 01:11:10;;;;;;;26.43;24.03;;;;;;;21.67;45.92;95331.03;6063477;28;109052;-66
2023/05/09 01:14:24;;;;;;;26.30;24.03;;;;;;;21.67;45.95;95333.69;6034275;28;110366;-69
2023/05/09 01:17:36;;;;;;;25.47;23.17;;;;;;;21.64;46.23;95320.97;6030531;28;110013;-68
2023/05/09 01:20:44;;;;;;;24.77;22.77;;;;;;;21.66;46.23;95329.44;6031284;28;109953;-67
2023/05/09 01:24:15;;;;;;;25.53;23.40;;;;;;;21.65;46.12;95327.88;6036317;28;109147;-69
2023/05/09 01:27:43;;;;;;;23.90;21.90;;;;;;;21.65;45.74;95322.53;6042146;28;109273;-68
2023/05/09 01:30:51;;;;;;;24.17;21.87;;;;;;;21.63;45.70;95324.72;6032489;28;109156;-67
2023/05/09 01:34:00;;;;;;;23.47;21.40;;;;;;;21.63;45.91;95324.72;6055689;28;110922;-67
2023/05/09 01:37:05;;;;;;;24.33;22.23;;;;;;;21.63;45.92;95324.72;6040014;28;109080;-67
2023/05/09 01:40:14;;;;;;;23.63;21.63;;;;;;;21.63;46.03;95330.03;6035592;28;109126;-67
2023/05/09 01:43:19;;;;;;;22.37;20.37;;;;;;;21.62;46.17;95329.25;6034606;28;109043;-67
2023/05/09 01:46:27;;;;;;;22.83;21.00;;;;;;;21.63;45.78;95327.38;6041672;28;109021;-68
2023/05/09 01:49:32;;;;;;;22.83;20.87;;;;;;;21.57;46.02;95315.25;6028151;28;108871;-67
2023/05/09 01:52:36;;;;;;;21.80;20.00;;;;;;;21.63;46.00;95327.38;6026247;28;109603;-68
2023/05/09 01:55:41;;;;;;;23.70;21.43;;;;;;;21.63;45.59;95328.16;6039121;28;108817;-67
2023/05/09 01:58:47;;;;;;;22.77;20.67;;;;;;;21.62;45.79;95328.47;6039269;28;110662;-71
2023/05/09 02:01:57;;;;;;;22.83;20.83;;;;;;;21.62;45.91;95328.47;6040266;28;109108;-69
2023/05/09 02:05:02;;;;;;;22.90;21.00;;;;;;;21.57;45.92;95316.03;6030552;28;109190;-67
2023/05/09 02:08:06;;;;;;;22.10;20.10;;;;;;;21.62;46.22;95323.13;6039573;28;109263;-68
2023/05/09 02:11:09;;;;;;;21.60;19.63;;;;;;;21.58;45.61;95320.28;6039813;28;109156;-68
2023/05/09 02:14:12;;;;;;;23.23;20.40;;;;;;;21.61;46.25;95327.66;6035650;28;109798;-67
2023/05/09 02:17:18;;;;;;;21.20;19.30;;;;;;;21.61;45.63;95332.22;6035337;28;110453;-68
2023/05/09 02:20:21;;;;;;;20.57;18.97;;;;;;;21.59;45.68;95323.72;6039442;28;109348;-67
2023/05/09 02:23:24;;;;;;;20.40;18.60;;;;;;;21.60;45.74;95335.97;6039721;28;109075;-68
2023/05/09 02:26:29;;;;;;;21.93;19.97;;;;;;;21.59;45.69;95329.84;6029759;28;109841;-69
2023/05/09 02:29:39;;;;;;;20.13;18.43;;;;;;;21.58;45.82;95322.16;6038092;28;109430;-68
2023/05/09 02:32:47;;;;;;;21.27;19.20;;;;;;;21.61;45.93;95334.88;6038763;28;110895;-67
2023/05/09 02:35:51;;;;;;;20.67;18.53;;;;;;;21.61;45.74;95332.22;6038073;28;108901;-68
2023/05/09 02:38:55;;;;;;;20.07;18.27;;;;;;;21.59;45.91;95335.16;6046920;28;109600;-68
2023/05/09 02:42:05;;;;;;;20.00;18.20;;;;;;;21.61;45.43;95334.88;6037938;28;109063;-68
2023/05/09 02:45:10;;;;;;;21.47;19.10;;;;;;;21.55;45.83;95326.19;6037181;28;109898;-67
2023/05/09 02:48:15;;;;;;;20.00;18.00;;;;;;;21.49;45.69;95320.16;6033657;28;109694;-69
2023/05/09 02:51:18;;;;;;;20.30;18.37;;;;;;;21.56;45.74;95327.78;6030736;28;109284;-67
2023/05/09 02:54:21;;;;;;;19.70;18.00;;;;;;;21.56;45.86;95330.44;6039499;28;109050;-68
2023/05/09 02:57:25;;;;;;;18.83;16.93;;;;;;;21.58;46.00;95335.47;6037467;28;109056;-68
2023/05/09 03:00:28;;;;;;;18.40;16.80;;;;;;;21.57;45.71;95336.56;6029940;28;109210;-68
2023/05/09 03:03:33;;;;;;;18.07;16.37;;;;;;;21.55;45.67;95333.41;6033822;28;109459;-67
2023/05/09 03:06:36;;;;;;;18.67;16.93;;;;;;;21.55;45.64;95342.19;6038013;28;110978;-67
2023/05/09 03:09:41;;;;;;;38.27;19.53;;;;;;;21.60;46.64;95346.63;6042546;28;109278;-67
2023/05/09 03:12:44;;;;;;;23.13;17.37;;;;;;;21.61;46.23;95353.50;6026647;28;111088;-68
2023/05/09 03:15:47;;;;;;;26.07;17.70;;;;;;;21.55;46.07;95346.72;6038009;28;110093;-70
2023/05/09 03:18:52;;;;;;;116.00;105.83;;;;;;;21.57;46.36;95350.66;6038389;28;109041;-68
2023/05/09 03:21:55;;;;;;;191.13;175.70;;;;;;;21.61;46.97;95359.63;6037669;28;108917;-68
2023/05/09 03:24:58;;;;;;;295.80;270.37;;;;;;;21.66;46.96;95369.41;6029050;28;109237;-67
2023/05/09 03:28:01;;;;;;;209.03;191.03;;;;;;;21.59;46.36;95361.00;6038687;28;109265;-66
2023/05/09 03:31:05;;;;;;;207.53;187.17;;;;;;;21.48;46.97;95366.50;6053103;28;111123;-68
2023/05/09 03:34:13;;;;;;;166.50;151.60;;;;;;;21.56;45.79;95378.38;6035471;28;109141;-67
2023/05/09 03:37:17;;;;;;;98.07;88.67;;;;;;;21.52;46.12;95383.50;6033764;28;109154;-67
2023/05/09 03:40:20;;;;;;;105.23;94.13;;;;;;;21.52;45.83;95382.72;6037677;28;109190;-64
2023/05/09 03:43:23;;;;;;;67.50;59.70;;;;;;;21.50;46.00;95390.97;6039340;28;109067;-65
2023/05/09 03:46:26;;;;;;;96.03;85.77;;;;;;;21.49;44.92;95378.75;6027416;28;110189;-67
2023/05/09 03:49:31;;;;;;;146.17;132.10;;;;;;;21.48;45.22;95387.03;6060507;28;108972;-67
2023/05/09 03:52:36;;;;;;;77.73;57.70;;;;;;;21.34;45.98;95378.22;6060285;28;109050;-66
2023/05/09 03:55:39;;;;;;;77.43;50.77;;;;;;;21.44;45.62;95391.34;6038397;28;111293;-67
2023/05/09 03:58:42;;;;;;;42.80;28.10;;;;;;;21.38;45.04;95377.34;6028328;28;109324;-69
2023/05/09 04:01:46;;;;;;;51.53;38.37;;;;;;;21.42;45.13;95394.31;6038701;28;109048;-67
2023/05/09 04:04:51;;;;;;;63.03;42.60;;;;;;;21.37;45.94;95386.44;6037840;28;109302;-67
2023/05/09 04:07:54;;;;;;;52.33;28.50;;;;;;;21.51;47.31;95387.25;6043606;28;110002;-66
2023/05/09 04:10:57;;;;;;;33.77;22.67;;;;;;;21.61;45.98;95388.13;6052542;28;109285;-67
2023/05/09 04:14:02;;;;;;;70.57;23.50;;;;;;;21.61;46.33;95390.81;6033313;28;109207;-66
2023/05/09 04:17:05;;;;;;;46.33;18.27;;;;;;;21.57;46.28;95389.81;6038988;28;108808;-66
2023/05/09 04:20:11;;;;;;;25.83;15.00;;;;;;;21.56;45.08;95386.38;6004868;28;109132;-67
2023/05/09 04:23:15;;;;;;;35.50;12.00;;;;;;;21.41;44.70;95386.63;6014086;28;109090;-67
2023/05/09 04:26:18;;;;;;;32.77;11.53;;;;;;;21.24;44.96;95395.16;6014652;28;109938;-64
2023/05/09 04:29:21;;;;;;;23.43;9.13;;;;;;;21.17;45.24;95392.06;6014416;28;108975;-60
2023/05/09 04:32:25;;;;;;;23.40;10.50;;;;;;;21.14;45.33;95393.44;6006685;28;109238;-61
2023/05/09 04:35:30;;;;;;;25.53;9.30;;;;;;;21.05;45.56;95384.56;6014830;28;109097;-61
2023/05/09 04:38:33;;;;;;;22.17;10.50;;;;;;;21.09;45.27;95390.06;6014836;28;109024;-61
2023/05/09 04:41:36;;;;;;;19.23;12.63;;;;;;;21.09;44.85;95390.88;6013998;29;111962;-61
2023/05/09 04:44:42;;;;;;;20.77;17.83;;;;;;;21.05;45.13;95394.41;6004744;28;111142;-61
2023/05/09 04:47:45;;;;;;;16.87;13.70;;;;;;;21.07;45.00;95393.03;6014291;28;109161;-64
2023/05/09 04:50:50;;;;;;;13.63;10.10;;;;;;;21.03;44.96;95391.22;6013599;29;109110;-63
2023/05/09 04:53:53;;;;;;;11.17;9.83;;;;;;;21.02;45.08;95395.75;6006451;28;110229;-61
2023/05/09 04:56:56;;;;;;;8.43;7.53;;;;;;;20.98;44.88;95399.25;6013651;29;109193;-62
2023/05/09 05:00:19;;;;;;;7.80;7.00;;;;;;;21.01;45.09;95401.34;6017813;28;109495;-62
2023/05/09 05:03:22;;;;;;;7.07;6.30;;;;;;;;;;6017580;29;110120;-63
2023/05/09 05:06:26;;;;;;;6.17;5.67;;;;;;;20.92;45.09;95402.00;6008255;28;109008;-62
2023/05/09 05:09:29;;;;;;;6.00;5.40;;;;;;;20.92;45.21;95391.34;6017824;28;109186;-62
2023/05/09 05:12:32;;;;;;;3.80;3.50;;;;;;;20.91;44.84;95389.78;6017442;28;109581;-62
2023/05/09 05:15:35;;;;;;;3.90;3.60;;;;;;;20.89;45.14;95391.94;6017789;28;109155;-62
2023/05/09 05:18:38;;;;;;;3.37;3.13;;;;;;;20.84;44.77;95394.69;6007216;28;109315;-62
2023/05/09 05:21:43;;;;;;;3.57;2.67;;;;;;;20.83;45.13;95389.63;6017622;28;109311;-64
2023/05/09 05:24:46;;;;;;;2.40;2.20;;;;;;;20.82;44.96;95399.47;6016636;28;109877;-76
2023/05/09 05:27:49;;;;;;;4.40;2.50;;;;;;;20.80;44.85;95393.66;6012081;28;109737;-63
2023/05/09 05:30:52;;;;;;;2.53;2.20;;;;;;;20.77;45.26;95391.59;6019314;28;109059;-61
2023/05/09 05:33:55;;;;;;;2.10;1.83;;;;;;;20.76;45.03;95397.19;6040998;28;109051;-62
2023/05/09 05:37:00;;;;;;;3.37;1.83;;;;;;;20.61;45.20;95388.34;6040534;28;109261;-62
2023/05/09 05:40:04;;;;;;;3.10;1.57;;;;;;;20.67;44.95;95397.06;6030113;28;110153;-65
2023/05/09 05:43:07;;;;;;;1.40;1.30;;;;;;;20.71;45.11;95399.94;6039927;28;109253;-62
2023/05/09 05:46:10;;;;;;;1.50;1.30;;;;;;;20.68;45.19;95396.00;6040625;28;109110;-63
2023/05/09 05:49:14;;;;;;;2.30;1.40;;;;;;;20.60;44.70;95391.28;6040517;28;109222;-62
2023/05/09 05:52:18;;;;;;;3.80;1.40;;;;;;;20.69;44.57;95402.88;6030198;28;110239;-62
2023/05/09 05:55:21;;;;;;;1.83;1.23;;;;;;;20.62;44.77;95394.44;6039239;28;109132;-62
2023/05/09 05:58:25;;;;;;;1.10;0.97;;;;;;;20.56;45.05;95404.38;6040268;28;110200;-62
2023/05/09 06:01:28;;;;;;;1.10;1.03;;;;;;;20.59;44.66;95413.66;6036328;28;109400;-63
2023/05/09 06:04:31;;;;;;;1.27;0.77;;;;;;;20.53;44.68;95404.97;6033800;28;112891;-62
2023/05/09 06:07:36;;;;;;;0.97;0.87;;;;;;;20.56;44.95;95398.28;6024413;28;109203;-63
2023/05/09 06:10:39;;;;;;;0.80;0.80;;;;;;;20.56;44.62;95401.72;6018605;28;109181;-62
2023/05/09 06:13:42;;;;;;;0.67;0.67;;;;;;;20.59;44.58;95408.31;6029575;28;110399;-62
2023/05/09 06:16:45;;;;;;;0.80;0.73;;;;;;;20.61;44.55;95411.50;6040027;28;108896;-61
2023/05/09 06:19:48;;;;;;;0.67;0.60;;;;;;;20.54;44.53;95400.44;6040468;28;109038;-62
2023/05/09 06:22:53;;;;;;;1.47;0.60;;;;;;;20.61;44.51;95411.50;6040319;28;109265;-62
2023/05/09 06:25:56;;;;;;;0.87;0.60;;;;;;;20.63;44.39;95396.81;6028718;28;109383;-62
2023/05/09 06:28:59;;;;;;;2.13;0.70;;;;;;;20.68;44.28;95403.97;6039412;28;109258;-61
2023/05/09 06:32:02;;;;;;;1.77;0.77;;;;;;;20.66;44.29;95399.97;6039991;28;109315;-63
2023/05/09 06:35:06;;;;;;;2.67;0.73;;;;;;;20.62;44.09;95410.41;6039820;28;108887;-62
2023/05/09 06:38:10;;;;;;;0.90;0.63;;;;;;;20.58;44.34;95406.75;6029807;28;109097;-62
2023/05/09 06:41:14;;;;;;;1.57;0.90;;;;;;;20.56;44.17;95407.03;6040199;28;109190;-62
2023/05/09 06:44:17;;;;;;;1.00;0.60;;;;;;;20.55;44.38;95409.97;6039951;28;109317;-62
2023/05/09 06:47:20;;;;;;;0.87;0.77;;;;;;;20.59;44.10;95401.16;6035454;28;109194;-61
2023/05/09 06:50:23;;;;;;;0.97;0.60;;;;;;;20.60;43.88;95405.38;6034374;28;109345;-63
2023/05/09 06:53:27;;;;;;;1.07;0.97;;;;;;;20.64;43.50;95405.59;6039982;28;109209;-62
2023/05/09 06:56:31;;;;;;;6.40;1.33;;;;;;;20.65;45.42;95396.53;6039231;28;109244;-70
2023/05/09 06:59:34;;;;;;;1.50;0.90;;;;;;;20.89;44.18;95399.13;6029679;28;109741;-72
2023/05/09 07:02:40;;;;;;;1.97;1.30;;;;;;;20.90;43.21;95400.72;6039499;28;109205;-62
2023/05/09 07:05:44;;;;;;;1.83;1.37;;;;;;;20.74;43.45;95392.16;6039776;28;109541;-61
2023/05/09 07:08:49;;;;;;;2.43;1.20;;;;;;;20.74;43.33;95394.81;6039911;28;108844;-62
2023/05/09 07:11:53;;;;;;;1.53;1.30;;;;;;;20.70;43.20;95393.03;6029485;28;110450;-61
2023/05/09 07:14:56;;;;;;;1.60;1.50;;;;;;;20.71;43.19;95391.97;6039368;28;109400;-60
2023/05/09 07:17:59;;;;;;;1.30;1.20;;;;;;;20.74;43.11;95392.16;6040386;28;109352;-61
2023/05/09 07:21:03;;;;;;;1.80;1.70;;;;;;;20.67;42.86;95378.44;6037954;28;109082;-62
2023/05/09 07:24:07;;;;;;;1.60;1.23;;;;;;;20.76;43.32;95397.19;6030059;28;110046;-61
2023/05/09 07:27:10;;;;;;;1.73;1.27;;;;;;;20.75;43.03;95398.28;6038739;28;109314;-60
2023/05/09 07:30:14;;;;;;;1.47;1.37;;;;;;;20.76;42.95;95391.88;6039198;28;109252;-61
2023/05/09 07:33:17;;;;;;;1.07;1.00;;;;;;;20.77;43.27;95396.13;6029474;28;110028;-61
2023/05/09 07:36:26;;;;;;;1.20;1.00;;;;;;;20.70;43.07;95393.03;6039572;28;109460;-62
2023/05/09 07:39:31;;;;;;;1.20;0.80;;;;;;;20.72;43.31;95388.22;6039328;28;109416;-61
2023/05/09 07:42:34;;;;;;;1.20;0.87;;;;;;;20.68;43.13;95387.22;6039113;28;109181;-61
2023/05/09 07:45:37;;;;;;;1.50;0.80;;;;;;;20.68;43.19;95389.88;6029500;28;109551;-61
2023/05/09 07:48:41;;;;;;;1.10;1.00;;;;;;;20.73;42.99;95398.56;6039341;28;110413;-62
2023/05/09 07:51:44;;;;;;;1.07;0.90;;;;;;;20.74;42.89;95400.16;6039199;28;109096;-61
2023/05/09 07:54:49;;;;;;;0.90;0.83;;;;;;;20.68;42.89;95395.19;6039002;28;109080;-60
2023/05/09 07:57:52;;;;;;;0.90;0.90;;;;;;;20.71;42.59;95406.03;6027377;28;109148;-60
2023/05/09 08:00:56;;;;;;;0.80;0.80;;;;;;;20.73;42.76;95400.44;6039014;28;109539;-61
2023/05/09 08:04:00;;;;;;;1.00;0.90;;;;;;;20.75;42.98;95395.63;6039005;28;109049;-61
2023/05/09 08:07:03;;;;;;;0.80;0.80;;;;;;;20.77;42.72;95393.44;6033177;28;110090;-62
2023/05/09 08:10:10;;;;;;;1.00;0.90;;;;;;;20.82;42.71;95391.50;6034081;28;110583;-61
2023/05/09 08:13:13;;;;;;;3.07;1.17;;;;;;;20.84;42.71;95397.34;6038830;28;108902;-61
2023/05/09 08:16:16;;;;;;;2.13;0.97;;;;;;;20.85;43.08;95396.28;6038914;28;109549;-62
2023/05/09 08:19:22;;;;;;;1.00;0.90;;;;;;;20.86;42.53;95400.50;6029232;28;110405;-61
2023/05/09 08:22:25;;;;;;;10.13;1.80;;;;;;;20.88;42.51;95394.91;6038710;28;109214;-61
2023/05/09 08:25:29;;;;;;;2.00;1.70;;;;;;;20.87;42.59;95395.97;6037966;28;109047;-61
2023/05/09 08:28:33;;;;;;;3.30;1.47;;;;;;;20.79;42.38;95391.28;6037721;28;111388;-62
2023/05/09 08:31:36;;;;;;;4.23;1.47;;;;;;;20.84;42.28;95394.69;6028322;28;108869;-61
2023/05/09 08:34:39;;;;;;;1.30;0.97;;;;;;;20.83;42.69;95393.06;6042424;28;109186;-62
2023/05/09 08:37:42;;;;;;;2.13;1.10;;;;;;;20.89;42.60;95386.63;6041867;28;111929;-62
2023/05/09 08:40:47;;;;;;;1.83;1.00;;;;;;;20.88;42.36;95393.03;6038896;28;109746;-63
2023/05/09 08:43:50;;;;;;;6.43;1.53;;;;;;;20.87;42.69;95391.44;6036034;28;109238;-62
2023/05/09 08:46:58;;;;;;;5.13;1.83;;;;;;;20.89;42.61;95393.81;6041302;28;109888;-62
2023/05/09 08:50:03;;;;;;;4.50;1.63;;;;;;;20.90;42.20;95392.72;6042296;28;109044;-62
2023/05/09 08:53:06;;;;;;;7.00;1.43;;;;;;;20.92;42.60;95391.34;6031079;28;111818;-61
2023/05/09 08:56:11;;;;;;;7.40;2.30;;;;;;;20.99;42.16;95393.63;6041392;28;109452;-61
2023/05/09 08:59:16;;;;;;;15.53;3.10;;;;;;;21.02;42.68;95392.28;6041139;28;109246;-62
2023/05/09 09:02:20;;;;;;;33.27;5.60;;;;;;;21.05;42.45;95395.19;6040855;28;109048;-62
2023/05/09 09:05:24;;;;;;;54.17;9.30;;;;;;;21.01;42.63;95396.81;6031164;28;109245;-62
2023/05/09 09:08:44;;;;;;;49.33;7.10;;;;;;;20.99;42.80;95398.16;6041975;28;109350;-62
2023/05/09 09:11:48;;;;;;;80.37;11.70;;;;;;;21.00;42.43;95387.25;6040737;28;109083;-62
2023/05/09 09:14:55;;;;;;;62.37;12.50;;;;;;;21.05;42.61;95394.41;6038234;28;109323;-63
2023/05/09 09:18:04;;;;;;;81.53;12.40;;;;;;;21.03;42.63;95396.53;6035555;28;109241;-62
2023/05/09 09:21:12;;;;;;;74.63;11.33;;;;;;;20.97;42.35;95390.47;6041657;28;109102;-61
2023/05/09 09:24:21;;;;;;;60.83;9.93;;;;;;;20.98;42.27;95401.91;6041347;28;109270;-62
2023/05/09 09:27:26;;;;;;;50.30;8.90;;;;;;;20.92;42.49;95401.22;6032119;28;109374;-64
2023/05/09 09:30:29;;;;;;;35.37;8.07;;;;;;;20.91;42.52;95399.63;6040357;28;109394;-65
2023/05/09 09:33:32;;;;;;;27.57;5.20;;;;;;;20.90;42.37;95401.50;6040684;28;109158;-65
2023/05/09 09:36:36;;;;;;;20.37;4.23;;;;;;;20.90;42.38;95404.16;6040953;28;109005;-64
2023/05/09 09:39:54;;;;;;;22.30;4.13;;;;;;;20.87;42.38;95403.97;6030203;28;109458;-64
2023/05/09 09:42:58;;;;;;;9.33;3.17;;;;;;;20.72;42.40;95394.31;6039970;28;111636;-64
2023/05/09 09:46:02;;;;;;;8.73;2.87;;;;;;;20.75;42.50;95392.94;6040653;28;109458;-64
2023/05/09 09:49:05;;;;;;;4.90;2.40;;;;;;;20.79;42.46;95408.03;6036844;28;109043;-65
2023/05/09 09:52:09;;;;;;;8.80;2.30;;;;;;;20.75;42.60;95404.38;6035640;28;108968;-66
2023/05/09 09:55:12;;;;;;;5.93;2.40;;;;;;;20.72;42.59;95406.84;6040997;28;109570;-66
2023/05/09 09:58:23;;;;;;;5.73;2.17;;;;;;;20.68;42.57;95403.97;6040512;28;109604;-66
2023/05/09 10:01:26;;;;;;;3.53;2.00;;;;;;;20.64;42.63;95408.25;6030254;28;112148;-68
2023/05/09 10:04:31;;;;;;;1.70;1.60;;;;;;;20.72;42.64;95404.97;6040922;28;109195;-65
2023/05/09 10:07:35;;;;;;;2.30;1.90;;;;;;;20.70;42.54;95393.81;6040591;28;109192;-65
2023/05/09 10:10:38;;;;;;;11.33;2.70;;;;;;;20.74;42.71;95389.50;6039876;28;109129;-65
2023/05/09 10:13:44;;;;;;;4.53;1.87;;;;;;;20.83;42.60;95392.28;6029783;28;109323;-64
2023/05/09 10:16:48;;;;;;;5.63;2.00;;;;;;;20.73;42.75;95382.59;6040312;28;109330;-65
2023/05/09 10:19:52;;;;;;;5.10;2.17;;;;;;;20.79;42.85;95394.75;6040077;28;108950;-65
2023/05/09 10:22:57;;;;;;;3.13;2.07;;;;;;;20.79;42.75;95391.28;6039485;28;109084;-64
2023/05/09 10:26:14;;;;;;;3.47;1.67;;;;;;;20.77;43.25;95398.78;6032837;28;110945;-65
2023/05/09 10:29:23;;;;;;;3.23;1.73;;;;;;;20.71;42.90;95391.97;6040430;28;109040;-65
2023/05/09 10:32:31;;;;;;;2.97;1.63;;;;;;;20.69;43.07;95400.22;6039162;28;109040;-64
2023/05/09 10:35:40;;;;;;;2.07;1.57;;;;;;;20.57;43.43;95402.50;6029175;28;109176;-65
2023/05/09 10:38:44;;;;;;;1.60;1.50;;;;;;;20.47;43.30;95392.00;6040232;28;109149;-62
2023/05/09 10:41:48;;;;;;;2.33;2.17;;;;;;;20.54;42.98;95395.13;6040077;28;109281;-62
2023/05/09 10:44:53;;;;;;;1.63;1.50;;;;;;;20.64;42.71;95408.25;6040067;28;109504;-62
2023/05/09 10:47:57;;;;;;;1.80;1.70;;;;;;;20.68;42.77;95396.00;6029430;28;110053;-62
2023/05/09 10:51:02;;;;;;;5.77;1.80;;;;;;;20.69;42.65;95400.22;6040124;28;109156;-62
2023/05/09 10:54:15;;;;;;;2.13;1.90;;;;;;;20.66;42.84;95405.31;6039403;28;108998;-62
2023/05/09 10:57:20;;;;;;;4.60;2.43;;;;;;;20.54;43.00;95413.72;6035265;28;111618;-62
2023/05/09 11:00:26;;;;;;;2.50;2.30;;;;;;;20.37;43.29;95408.09;6034041;28;109285;-63
2023/05/09 11:03:53;;;;;;;2.43;2.10;;;;;;;20.36;43.27;95401.19;6039096;28;108546;-63
2023/05/09 11:06:56;;;;;;;3.03;2.03;;;;;;;20.33;43.37;95399.88;6039870;28;109128;-62
2023/05/09 11:10:09;;;;;;;1.90;1.80;;;;;;;20.36;42.98;95393.22;6029075;28;109042;-63
2023/05/09 11:13:12;;;;;;;2.10;1.90;;;;;;;20.45;42.84;95396.81;6040028;28;109109;-63
2023/05/09 11:16:16;;;;;;;2.23;2.00;;;;;;;20.40;43.34;95410.19;6039187;28;109255;-62
2023/05/09 11:19:35;;;;;;;3.03;2.07;;;;;;;20.46;42.99;95398.41;6039439;28;109103;-62
2023/05/09 11:22:40;;;;;;;2.23;2.10;;;;;;;20.43;43.15;95394.44;6029663;28;109211;-61
2023/05/09 11:25:46;;;;;;;2.23;2.13;;;;;;;20.47;42.85;95394.66;6039586;28;110692;-62
2023/05/09 11:28:55;;;;;;;2.80;2.60;;;;;;;20.57;42.57;95402.50;6040504;28;108635;-62
2023/05/09 11:32:07;;;;;;;3.10;2.20;;;;;;;20.59;42.60;95411.00;6030806;28;109227;-63
2023/05/09 11:35:13;;;;;;;2.37;2.27;;;;;;;20.48;43.00;95396.25;6038895;28;109637;-65
2023/05/09 11:38:21;;;;;;;2.67;2.47;;;;;;;20.51;42.78;95408.97;6040419;28;109440;-65
2023/05/09 11:41:25;;;;;;;2.63;2.43;;;;;;;20.40;42.90;95404.88;6039643;28;109112;-66
2023/05/09 11:44:30;;;;;;;2.47;2.27;;;;;;;20.37;43.05;95406.22;6029228;28;109150;-66
2023/05/09 11:47:35;;;;;;;2.60;2.40;;;;;;;20.39;42.60;95397.97;6039765;28;109337;-65
2023/05/09 11:50:40;;;;;;;2.80;2.60;;;;;;;20.39;42.57;95413.91;6039775;28;108831;-66
2023/05/09 11:53:45;;;;;;;2.80;2.50;;;;;;;20.34;42.66;95409.47;6038874;28;109169;-66
2023/05/09 11:56:49;;;;;;;3.20;2.90;;;;;;;20.37;42.60;95406.22;6030228;28;109235;-65
2023/05/09 11:59:53;;;;;;;3.70;2.73;;;;;;;20.39;42.60;95404.06;6038981;28;109086;-68
2023/05/09 12:02:57;;;;;;;84.93;13.70;;;;;;;20.57;42.54;95397.19;6039002;28;109144;-66
2023/05/09 12:06:01;;;;;;;66.37;9.10;;;;;;;20.55;42.48;95402.00;6029282;28;109500;-65
2023/05/09 12:09:04;;;;;;;48.43;10.03;;;;;;;20.45;42.53;95399.47;6037463;28;110227;-65
2023/05/09 12:12:11;;;;;;;43.37;7.90;;;;;;;20.35;42.71;95396.97;6038634;28;108920;-66
2023/05/09 12:15:15;;;;;;;39.13;7.67;;;;;;;20.32;42.58;95404.41;6038691;28;109032;-65
2023/05/09 12:18:20;;;;;;;18.53;4.90;;;;;;;20.30;42.86;95401.25;6027218;28;108730;-66
2023/05/09 12:21:24;;;;;;;16.30;4.70;;;;;;;20.23;43.17;95390.16;6038000;28;110311;-66
2023/05/09 12:24:28;;;;;;;6.83;3.43;;;;;;;20.18;43.16;95402.72;6038426;28;109191;-67
2023/05/09 12:27:32;;;;;;;8.57;3.10;;;;;;;20.15;43.05;95389.97;6038918;28;109039;-66
2023/05/09 12:30:35;;;;;;;4.10;2.93;;;;;;;20.08;43.18;95393.00;6027687;28;109221;-66
2023/05/09 12:33:40;;;;;;;4.70;2.60;;;;;;;20.14;42.79;95386.53;6037904;28;109014;-66
2023/05/09 12:36:49;;;;;;;3.73;2.30;;;;;;;20.15;42.90;95387.31;6037284;28;109271;-66
2023/05/09 12:40:03;;;;;;;3.57;2.50;;;;;;;20.10;42.75;95398.03;6032855;28;109070;-65
2023/05/09 12:43:07;;;;;;;4.87;2.30;;;;;;;20.09;43.01;95394.56;6037213;28;109564;-66
2023/05/09 12:46:10;;;;;;;3.00;2.07;;;;;;;20.07;43.05;95396.72;6037635;28;108978;-65
2023/05/09 12:49:21;;;;;;;4.20;2.53;;;;;;;20.08;43.09;95385.03;6037932;28;109078;-66
2023/05/09 12:52:25;;;;;;;2.70;1.97;;;;;;;20.15;42.94;95396.09;6027677;28;111962;-65
2023/05/09 12:55:28;;;;;;;2.50;2.30;;;;;;;20.18;43.08;95389.44;6037452;28;110154;-67
2023/05/09 12:58:32;;;;;;;2.60;2.23;;;;;;;20.06;43.25;95381.88;6038005;28;109070;-62
2023/05/09 13:01:36;;;;;;;1.77;1.67;;;;;;;20.06;43.47;95386.38;6037431;28;110252;-62
2023/05/09 13:04:40;;;;;;;2.80;2.27;;;;;;;20.11;43.43;95381.00;6027794;28;109306;-62
2023/05/09 13:07:45;;;;;;;2.97;2.20;;;;;;;20.14;43.05;95383.09;6037601;28;109055;-61
2023/05/09 13:10:48;;;;;;;2.37;2.17;;;;;;;20.15;43.25;95376.69;6037932;28;111852;-62
2023/05/09 13:14:06;;;;;;;2.40;2.20;;;;;;;20.13;42.93;95376.97;6029954;28;108839;-65
2023/05/09 13:17:09;;;;;;;2.00;1.90;;;;;;;20.12;43.06;95377.28;6035513;28;109203;-62
2023/05/09 13:20:14;;;;;;;2.80;1.83;;;;;;;20.07;43.59;95370.16;6041189;28;110260;-62
2023/05/09 13:23:18;;;;;;;1.90;1.80;;;;;;;20.14;43.44;95375.13;6041672;28;109039;-61
2023/05/09 13:26:21;;;;;;;2.47;2.10;;;;;;;20.10;43.41;95372.25;6030829;28;109138;-62
2023/05/09 13:29:24;;;;;;;2.03;1.93;;;;;;;19.99;43.62;95371.56;6041863;28;109073;-61
2023/05/09 13:32:27;;;;;;;2.30;2.10;;;;;;;19.85;43.73;95361.94;6041068;28;109701;-61
2023/05/09 13:35:32;;;;;;;2.10;2.00;;;;;;;20.03;43.52;95371.81;6040148;28;109061;-61
2023/05/09 13:38:37;;;;;;;2.47;2.27;;;;;;;20.01;43.53;95371.31;6029094;28;108744;-60
2023/05/09 13:41:40;;;;;;;4.37;2.07;;;;;;;20.03;43.65;95363.84;6040803;28;109167;-61
2023/05/09 13:44:43;;;;;;;4.47;2.40;;;;;;;20.02;43.50;95372.88;6040461;28;110814;-60
2023/05/09 13:47:46;;;;;;;2.50;2.30;;;;;;;20.01;43.51;95366.00;6035282;28;109668;-60
2023/05/09 13:50:52;;;;;;;2.17;2.07;;;;;;;20.00;43.38;95361.75;6035348;28;109038;-61
2023/05/09 13:53:55;;;;;;;2.00;1.90;;;;;;;20.02;43.36;95370.22;6040002;28;109339;-61
2023/05/09 13:57:00;;;;;;;2.07;1.90;;;;;;;19.89;43.57;95347.81;6040985;28;109148;-59
2023/05/09 14:00:04;;;;;;;2.60;2.40;;;;;;;19.98;43.27;95362.03;6030008;28;110048;-60
2023/05/09 14:03:07;;;;;;;2.30;2.10;;;;;;;19.87;43.87;95354.47;6040679;28;109178;-62
2023/05/09 14:06:12;;;;;;;2.47;2.10;;;;;;;19.85;43.71;95357.41;6040448;28;112266;-60
2023/05/09 14:09:18;;;;;;;2.53;2.13;;;;;;;19.86;43.69;95360.88;6040129;28;109243;-64
2023/05/09 14:12:23;;;;;;;3.50;2.10;;;;;;;19.89;43.68;95360.28;6029977;28;110241;-64